• Join FlightAware (Why Join?)
  • Login
  • US Flag 
05:22AM EST


 

Airport Tracker/Info


-or-


 

Live Flight TrackerFlight Track Log ✈ KAP644 ✈ 11-Jun-2013 ✈ KMVY - KBOS

Flight Track Log - Related Links

Times and Time Zones

All times are in EDT time to prevent confusion due to time zone crossing. See the KAP644 flight status page for this flight to view local times or setup timezone preferences in your user account.

Time Position Orientation Groundspeed Altitude Reporting Facility
EDT Latitude Longitude Course Direction KTS MPH feet Rate Location/Type
09:06AM 41.6399 -70.5941 North  Level FlightAware Approximate
09:07AM 41.6826 -70.5896 North  Level FlightAware Approximate
09:08AM 41.7253 -70.5851 North  Level FlightAware Approximate
09:09AM 41.7679 -70.5806 North  Level FlightAware Approximate
09:10AM 41.8106 -70.5761 North  Level FlightAware Approximate
09:10AM 41.8000 -70.5333 340° North 161 185 4,000  Level KA90
09:11AM 41.8532 -70.5716 North  Level FlightAware Approximate
09:11AM 41.8333 -70.5500 340° North 158 182 4,000  Level KA90
09:12AM 41.8959 -70.5671 North  Level FlightAware Approximate
09:12AM 41.8667 -70.5833 323° Northwest 156 180 4,000  Level KA90
09:13AM 41.9310 -70.5977 323° Northwest  Level FlightAware Approximate
09:13AM 41.9000 -70.6000 340° North 153 176 4,000  Level KA90
09:14AM 41.9654 -70.6320 323° Northwest  Level FlightAware Approximate
09:14AM 41.9333 -70.6333 323° Northwest 148 170 4,000  Level KA90
09:15AM 41.9667 -70.6667 323° Northwest 143 165 4,000  Level KA90
09:15AM 41.9997 -70.6663 323° Northwest  Level FlightAware Approximate
09:16AM 42.0000 -70.7167 312° West 144 166 4,000  Level KA90
09:17AM 42.0167 -70.7500 304° West 144 166 4,000  Level KA90
09:17AM 42.0500 -70.7833 323° Northwest 141 162 4,000 -240 Level KA90
09:18AM 42.0667 -70.8333 294° West 151 174 3,600 -480 Descending KA90
09:20AM 42.0833 -70.8833 294° West 163 188 3,000 -300 Descending KA90
09:20AM 42.1000 -70.9333 294° West 147 169 3,000  Level KA90
09:21AM 42.1167 -70.9667 304° West 139 160 3,000  Level KA90
09:23AM 42.1500 -71.0333 304° West 139 160 3,000  Level KA90
09:23AM 42.1667 -71.0667 304° West 139 160 3,000  Level KA90
09:25AM 42.2000 -71.0833 340° North 165 190 3,000 -240 Level KA90
09:26AM 42.2500 -71.0500 26° Northeast 177 204 2,500 -720 Descending KA90
09:26AM 42.2833 -71.0333 20° North 171 197 1,700 -1,020 Descending KA90
09:27AM 42.3333 -71.0167 14° North 155 178 600 -1,140 Descending KA90
09:29AM 42.3500 -71.0000 North  Level FlightAware Approximate
09:36AM 42.3630 -71.0064 North  Level Estimated